Time;durP1;ratioP1;P1;durP2;ratioP2;P2;SDS_P1;SDS_P2;PMS_P1;PMS_P2;Temp;Humidity;BMP_temperature;BMP_pressure;BME280_temperature;BME280_humidity;BME280_pressure;Samples;Min_cycle;Max_cycle;Signal;HPM_P1;HPM_P2
2022/01/17 00:01:30;;;;;;;4.07;1.83;;;6.70;94.40;;;;;;5110692;28;20032;-79
2022/01/17 00:03:56;;;;;;;2.90;1.58;;;6.70;94.40;;;;;;5108292;28;20013;-79
2022/01/17 00:06:22;;;;;;;4.22;1.50;;;6.60;94.30;;;;;;5093326;28;20074;-79
2022/01/17 00:08:49;;;;;;;2.38;1.40;;;6.60;94.30;;;;;;5112448;28;20056;-79
2022/01/17 00:11:16;;;;;;;3.08;1.50;;;6.70;94.40;;;;;;5074859;28;20067;-79
2022/01/17 00:13:44;;;;;;;3.58;1.77;;;6.70;94.40;;;;;;5073967;28;20040;-79
2022/01/17 00:16:14;;;;;;;3.60;1.83;;;6.60;94.30;;;;;;5086383;28;20033;-79
2022/01/17 00:21:21;;;;;;;4.23;1.73;;;6.60;94.30;;;;;;5107678;28;20402;-79
2022/01/17 00:23:49;;;;;;;3.65;1.70;;;6.70;94.40;;;;;;5108970;28;20028;-79
2022/01/17 00:26:14;;;;;;;4.45;1.95;;;6.60;94.30;;;;;;5106561;28;20043;-78
2022/01/17 00:28:40;;;;;;;5.22;2.10;;;6.70;94.40;;;;;;5114655;28;20036;-79
2022/01/17 00:31:06;;;;;;;3.67;1.80;;;6.60;94.30;;;;;;5113821;28;20058;-79
2022/01/17 00:33:33;;;;;;;4.65;2.22;;;6.60;94.30;;;;;;5117592;28;20046;-79
2022/01/17 00:35:59;;;;;;;3.63;1.80;;;6.50;94.30;;;;;;5114895;27;20036;-79
2022/01/17 00:38:25;;;;;;;4.93;2.08;;;6.60;94.30;;;;;;5095957;28;20050;-79
2022/01/17 00:40:50;;;;;;;8.02;2.10;;;6.60;94.30;;;;;;5091708;28;20032;-79
2022/01/17 00:43:16;;;;;;;3.13;1.70;;;6.60;94.30;;;;;;5107195;28;20130;-79
2022/01/17 00:45:44;;;;;;;4.65;1.92;;;6.60;94.30;;;;;;5111155;28;20056;-79
2022/01/17 00:48:12;;;;;;;5.68;2.00;;;6.60;94.20;;;;;;5108514;28;20055;-78
2022/01/17 00:50:39;;;;;;;4.00;1.95;;;6.60;94.30;;;;;;5096839;28;20455;-80
2022/01/17 00:53:07;;;;;;;4.32;1.75;;;6.60;94.20;;;;;;5087187;28;20123;-80
2022/01/17 00:55:35;;;;;;;5.50;1.80;;;6.60;94.50;;;;;;5093631;28;20043;-80
2022/01/17 00:58:01;;;;;;;2.92;1.50;;;6.60;94.20;;;;;;5074316;28;20042;-81
2022/01/17 01:00:27;;;;;;;3.97;1.60;;;6.60;94.20;;;;;;5089424;28;20049;-81
2022/01/17 01:02:53;;;;;;;4.07;1.33;;;6.70;94.20;;;;;;5086157;28;20312;-80
2022/01/17 01:05:25;;;;;;;4.13;1.55;;;6.60;94.20;;;;;;5073008;28;20032;-81
2022/01/17 01:07:53;;;;;;;3.63;1.50;;;6.60;94.20;;;;;;5085321;28;20042;-79
2022/01/17 01:10:20;;;;;;;2.75;1.13;;;6.60;94.20;;;;;;5091972;28;20036;-80
2022/01/17 01:12:48;;;;;;;1.92;1.10;;;6.60;94.20;;;;;;5072558;28;20078;-79
2022/01/17 01:15:20;;;;;;;2.10;1.10;;;6.60;94.20;;;;;;5057272;28;20394;-80
2022/01/17 01:17:56;;;;;;;3.30;1.20;;;6.60;94.20;;;;;;5047352;28;20504;-78
2022/01/17 01:28:35;;;;;;;2.63;1.02;;;6.60;94.10;;;;;;5062176;28;20083;-79
2022/01/17 01:31:05;;;;;;;3.53;0.90;;;6.60;94.00;;;;;;5036046;28;20055;-78
2022/01/17 01:33:36;;;;;;;2.75;0.55;;;6.60;94.00;;;;;;5077894;28;20096;-79
2022/01/17 01:36:08;;;;;;;4.60;0.80;;;6.50;94.00;;;;;;5071173;28;20040;-78
2022/01/17 01:38:35;;;;;;;1.67;0.63;;;6.60;94.00;;;;;;5081893;28;20331;-79
2022/01/17 01:41:02;;;;;;;1.70;0.57;;;6.50;94.00;;;;;;5055016;28;20495;-79
2022/01/17 01:43:28;;;;;;;1.38;0.52;;;6.50;94.00;;;;;;5071975;28;20141;-79
2022/01/17 01:45:59;;;;;;;1.45;0.57;;;6.50;94.00;;;;;;5020388;28;20128;-79
2022/01/17 01:48:26;;;;;;;1.00;0.50;;;6.50;94.00;;;;;;5047436;28;20064;-79
2022/01/17 01:50:51;;;;;;;0.40;0.40;;;6.50;93.90;;;;;;5095439;28;20603;-79
2022/01/17 01:53:17;;;;;;;2.22;0.52;;;6.50;93.90;;;;;;5079116;28;20035;-78
2022/01/17 01:55:44;;;;;;;1.63;0.60;;;6.60;93.90;;;;;;5060656;28;20037;-79
2022/01/17 01:58:10;;;;;;;1.17;0.43;;;6.60;93.90;;;;;;5094122;28;20024;-79
2022/01/17 02:00:36;;;;;;;1.30;0.60;;;6.50;93.80;;;;;;5060240;28;20355;-79
2022/01/17 02:03:04;;;;;;;1.88;0.55;;;6.40;93.80;;;;;;5093787;28;20115;-79
2022/01/17 02:05:30;;;;;;;2.70;0.70;;;6.50;93.80;;;;;;5057517;28;20071;-79
2022/01/17 02:07:56;;;;;;;3.63;0.68;;;6.50;93.80;;;;;;5094012;28;20431;-79
2022/01/17 02:10:22;;;;;;;2.72;0.70;;;6.40;93.80;;;;;;5093869;28;20487;-79
2022/01/17 02:12:47;;;;;;;2.65;0.75;;;6.40;93.80;;;;;;5090115;28;20070;-79
2022/01/17 02:15:15;;;;;;;0.82;0.50;;;6.40;93.80;;;;;;5095541;28;20051;-80
2022/01/17 02:17:58;;;;;;;1.27;0.50;;;6.40;93.80;;;;;;5071078;28;20041;-79
2022/01/17 02:20:34;;;;;;;2.35;0.60;;;6.40;93.80;;;;;;5078750;28;20401;-80
2022/01/17 02:23:04;;;;;;;1.42;0.43;;;6.40;93.70;;;;;;5087966;28;20047;-79
2022/01/17 02:25:30;;;;;;;1.10;0.30;;;6.40;93.80;;;;;;5073008;28;20051;-80
2022/01/17 02:27:57;;;;;;;1.23;0.38;;;6.30;93.70;;;;;;5077941;28;20040;-79
2022/01/17 02:30:25;;;;;;;1.55;0.63;;;6.30;93.70;;;;;;5073521;28;20040;-80
2022/01/17 02:32:51;;;;;;;1.83;0.40;;;6.30;93.70;;;;;;5074830;28;20028;-79
2022/01/17 02:35:21;;;;;;;1.80;0.43;;;6.30;93.70;;;;;;5072123;28;20222;-80
2022/01/17 02:37:49;;;;;;;1.42;0.50;;;6.30;93.70;;;;;;5076948;28;20039;-79
2022/01/17 02:40:17;;;;;;;0.93;0.45;;;6.30;93.70;;;;;;5110971;28;20066;-80
2022/01/17 02:42:45;;;;;;;2.58;0.40;;;6.30;93.60;;;;;;5113067;28;20121;-80
2022/01/17 02:45:30;;;;;;;2.58;0.57;;;6.30;93.60;;;;;;5094577;28;20497;-80
2022/01/17 02:47:59;;;;;;;1.05;0.50;;;6.20;93.60;;;;;;5080299;28;20466;-80
2022/01/17 02:50:24;;;;;;;1.83;0.50;;;6.20;93.60;;;;;;5077373;28;20028;-80
2022/01/17 02:52:50;;;;;;;0.85;0.30;;;6.20;93.60;;;;;;5077297;28;20125;-80
2022/01/17 02:55:16;;;;;;;1.33;0.30;;;6.20;93.50;;;;;;5094702;28;20040;-80
2022/01/17 02:57:42;;;;;;;0.77;0.32;;;6.20;93.50;;;;;;5056953;28;20040;-79
2022/01/17 03:00:11;;;;;;;2.55;0.30;;;6.20;93.60;;;;;;5069529;28;20052;-80
2022/01/17 03:02:37;;;;;;;1.73;0.52;;;6.20;93.50;;;;;;5090922;28;20040;-80
2022/01/17 03:05:08;;;;;;;1.42;0.25;;;6.20;93.50;;;;;;5091140;28;20032;-80
2022/01/17 03:07:34;;;;;;;;;;;6.20;93.50;;;;;;5093245;28;20119;-79
2022/01/17 03:10:03;;;;;;;1.50;0.40;;;6.10;93.50;;;;;;5093679;28;20326;-79
2022/01/17 03:12:30;;;;;;;1.27;0.20;;;6.10;93.50;;;;;;5073617;28;20122;-79
2022/01/17 03:14:56;;;;;;;2.75;0.40;;;6.10;93.50;;;;;;5091207;28;20050;-80
2022/01/17 03:17:22;;;;;;;1.98;0.47;;;6.00;93.40;;;;;;5072996;28;20040;-80
2022/01/17 03:19:48;;;;;;;2.38;0.55;;;6.10;93.50;;;;;;5072596;28;20055;-80
2022/01/17 03:22:13;;;;;;;0.77;0.30;;;6.00;93.50;;;;;;5090820;28;20044;-79
2022/01/17 03:24:39;;;;;;;1.60;0.57;;;6.00;93.40;;;;;;5072219;28;20024;-79
2022/01/17 03:27:05;;;;;;;1.23;0.40;;;6.00;93.40;;;;;;5092898;28;20078;-79
2022/01/17 03:29:31;;;;;;;1.65;0.40;;;6.00;93.40;;;;;;5092249;28;20044;-80
2022/01/17 03:31:56;;;;;;;1.15;0.63;;;5.90;93.40;;;;;;5091969;28;20536;-79
2022/01/17 03:34:22;;;;;;;2.40;0.50;;;5.80;93.40;;;;;;5070304;28;20039;-79
2022/01/17 03:36:48;;;;;;;0.90;0.50;;;5.80;93.40;;;;;;5091015;28;20043;-79
2022/01/17 03:39:14;;;;;;;1.33;0.60;;;5.80;93.40;;;;;;5072244;28;20048;-79
2022/01/17 03:41:40;;;;;;;2.28;0.40;;;5.70;93.40;;;;;;5039151;28;20037;-79
2022/01/17 03:44:07;;;;;;;1.30;0.30;;;5.60;93.50;;;;;;5092263;28;20118;-80
2022/01/17 03:46:32;;;;;;;1.08;0.40;;;5.60;93.50;;;;;;5094056;28;20132;-80
2022/01/17 03:48:58;;;;;;;3.92;0.50;;;5.50;93.50;;;;;;5094122;28;20044;-79
2022/01/17 03:51:24;;;;;;;3.75;0.60;;;5.40;93.50;;;;;;5093893;28;20051;-80
2022/01/17 03:53:50;;;;;;;2.35;0.40;;;5.40;93.60;;;;;;5110109;28;20039;-80
2022/01/17 03:56:18;;;;;;;1.02;0.40;;;5.30;93.60;;;;;;5092941;28;20093;-80
2022/01/17 03:58:45;;;;;;;0.65;0.40;;;5.40;93.60;;;;;;5072183;28;20039;-79
2022/01/17 04:01:11;;;;;;;2.53;0.50;;;5.30;93.60;;;;;;5091098;28;20036;-80
2022/01/17 04:03:38;;;;;;;3.40;0.68;;;5.20;93.60;;;;;;5090343;28;20035;-80
2022/01/17 04:06:04;;;;;;;1.50;0.43;;;5.30;93.60;;;;;;5055382;28;20035;-79
2022/01/17 04:08:30;;;;;;;2.15;0.47;;;5.20;93.60;;;;;;5075257;28;20046;-80
2022/01/17 04:10:56;;;;;;;1.65;0.40;;;5.20;93.50;;;;;;5090191;28;20031;-80
2022/01/17 04:13:23;;;;;;;4.90;0.73;;;5.10;93.50;;;;;;5092698;28;20092;-80
2022/01/17 04:15:49;;;;;;;0.88;0.40;;;5.10;93.50;;;;;;5072177;28;20101;-81
2022/01/17 04:18:16;;;;;;;1.95;0.40;;;5.00;93.50;;;;;;5075190;28;20402;-79
2022/01/17 04:20:42;;;;;;;2.50;0.30;;;5.10;93.80;;;;;;5076580;28;20075;-80
2022/01/17 04:23:11;;;;;;;1.38;0.32;;;5.00;93.50;;;;;;5094439;28;20019;-80
2022/01/17 04:25:39;;;;;;;2.92;0.40;;;5.00;93.50;;;;;;5093553;28;20038;-80
2022/01/17 04:28:06;;;;;;;0.98;0.30;;;5.10;93.50;;;;;;5093435;28;20032;-79
2022/01/17 04:30:32;;;;;;;2.85;0.32;;;4.80;93.50;;;;;;5088602;28;20119;-79
2022/01/17 04:32:59;;;;;;;1.23;0.50;;;4.90;93.60;;;;;;5090768;28;20064;-80
2022/01/17 04:35:28;;;;;;;1.15;0.35;;;4.90;93.50;;;;;;5092020;28;20028;-79
2022/01/17 04:37:57;;;;;;;1.98;0.50;;;5.00;93.50;;;;;;5055656;28;20063;-79
2022/01/17 04:40:24;;;;;;;1.23;0.40;;;4.90;93.50;;;;;;5091042;28;20045;-79
2022/01/17 04:42:53;;;;;;;2.88;0.30;;;5.00;93.50;;;;;;5089628;28;20422;-79
2022/01/17 04:45:20;;;;;;;1.98;0.35;;;5.00;93.40;;;;;;5054043;28;20123;-79
2022/01/17 04:47:49;;;;;;;0.52;0.30;;;5.00;93.40;;;;;;5091632;28;20480;-79
2022/01/17 04:50:19;;;;;;;1.55;0.50;;;5.00;93.40;;;;;;5092023;28;20089;-79
2022/01/17 04:52:46;;;;;;;1.50;0.50;;;5.00;93.30;;;;;;5093027;28;20482;-80
2022/01/17 04:55:14;;;;;;;3.30;0.60;;;5.00;93.30;;;;;;5076741;28;20051;-79
2022/01/17 04:57:40;;;;;;;2.95;0.52;;;5.00;93.30;;;;;;5076034;28;20051;-80
2022/01/17 05:00:09;;;;;;;1.83;0.60;;;5.00;93.30;;;;;;5062564;28;20126;-79
2022/01/17 05:02:34;;;;;;;2.88;0.35;;;5.00;93.30;;;;;;5077123;28;20039;-79
2022/01/17 05:05:02;;;;;;;2.30;0.50;;;5.00;93.30;;;;;;5095168;28;20058;-79
2022/01/17 05:07:29;;;;;;;2.38;0.60;;;5.10;93.30;;;;;;5094643;28;20043;-79
2022/01/17 05:09:54;;;;;;;0.93;0.50;;;5.10;93.20;;;;;;5094574;28;20051;-79
2022/01/17 05:12:20;;;;;;;1.45;0.43;;;5.10;93.20;;;;;;5076257;28;20474;-79
2022/01/17 05:14:49;;;;;;;2.30;0.57;;;5.00;93.10;;;;;;5076862;28;20458;-79
2022/01/17 05:17:37;;;;;;;1.35;0.50;;;5.10;93.10;;;;;;5060734;28;20452;-79
2022/01/17 05:20:01;;;;;;;2.65;0.52;;;5.00;93.10;;;;;;5094235;28;20055;-80
2022/01/17 05:22:31;;;;;;;1.80;0.43;;;5.00;93.10;;;;;;5076356;28;20656;-79
2022/01/17 05:24:58;;;;;;;1.38;0.35;;;5.00;93.10;;;;;;5094846;28;20044;-79
2022/01/17 05:27:24;;;;;;;1.58;0.50;;;4.90;93.20;;;;;;5093243;28;20047;-80
2022/01/17 05:29:50;;;;;;;1.23;0.43;;;4.90;93.20;;;;;;5056170;28;20395;-78
2022/01/17 05:32:15;;;;;;;1.25;0.40;;;4.90;93.20;;;;;;5094334;28;20035;-79
2022/01/17 05:34:41;;;;;;;0.98;0.50;;;4.80;93.30;;;;;;5095077;28;20085;-79
2022/01/17 05:37:09;;;;;;;1.90;0.50;;;4.90;93.30;;;;;;5073687;28;20045;-80
2022/01/17 05:39:36;;;;;;;1.23;0.55;;;4.80;93.30;;;;;;5060918;28;20044;-79
2022/01/17 05:42:02;;;;;;;2.88;0.60;;;4.80;93.30;;;;;;5097234;28;20043;-79
2022/01/17 05:44:31;;;;;;;1.20;0.60;;;4.80;93.30;;;;;;5078351;28;20044;-79
2022/01/17 05:46:56;;;;;;;2.33;0.50;;;4.80;93.30;;;;;;5114407;28;20044;-79
2022/01/17 05:49:22;;;;;;;1.30;0.57;;;4.80;93.30;;;;;;5110454;28;20034;-80
2022/01/17 05:51:48;;;;;;;3.08;0.63;;;4.80;93.30;;;;;;5113041;28;20067;-80
2022/01/17 05:54:15;;;;;;;1.00;0.60;;;4.70;93.30;;;;;;5125804;22;20068;-80
2022/01/17 05:56:42;;;;;;;3.33;0.70;;;4.80;93.40;;;;;;5084032;28;20044;-80
2022/01/17 05:59:08;;;;;;;1.60;0.63;;;4.70;93.30;;;;;;5075023;28;20031;-80
2022/01/17 06:01:34;;;;;;;2.83;0.93;;;4.80;93.40;;;;;;5090395;28;20053;-80
2022/01/17 06:04:00;;;;;;;1.50;0.80;;;4.70;93.40;;;;;;5079217;28;20126;-80
2022/01/17 06:06:28;;;;;;;2.53;0.95;;;4.70;93.40;;;;;;5070380;28;20509;-80
2022/01/17 06:08:53;;;;;;;2.13;0.82;;;4.70;93.40;;;;;;5072184;28;20103;-80
2022/01/17 06:11:19;;;;;;;2.88;0.93;;;4.60;93.40;;;;;;5073619;28;20033;-81
2022/01/17 06:13:45;;;;;;;2.75;1.15;;;4.80;93.40;;;;;;5038759;28;20147;-81
2022/01/17 06:16:10;;;;;;;2.78;1.05;;;4.60;93.40;;;;;;5072044;28;20048;-80
2022/01/17 06:18:36;;;;;;;2.50;1.15;;;4.70;93.40;;;;;;5053717;28;20059;-80
2022/01/17 06:21:02;;;;;;;4.22;1.40;;;4.60;93.40;;;;;;5055285;28;20961;-81
2022/01/17 06:23:28;;;;;;;4.75;1.40;;;4.60;93.50;;;;;;5073643;28;20116;-81
2022/01/17 06:25:53;;;;;;;3.03;1.30;;;4.60;93.50;;;;;;5069910;28;20538;-81
2022/01/17 06:28:19;;;;;;;2.83;1.30;;;4.60;93.50;;;;;;5052987;28;20033;-81
2022/01/17 06:30:45;;;;;;;3.33;1.33;;;4.60;93.50;;;;;;5038094;28;20086;-80
2022/01/17 06:33:11;;;;;;;3.63;1.40;;;4.60;93.50;;;;;;5053177;28;20025;-80
2022/01/17 06:35:37;;;;;;;2.75;1.17;;;4.60;93.50;;;;;;5055245;28;20033;-81
2022/01/17 06:38:03;;;;;;;3.40;1.30;;;4.50;93.50;;;;;;5072289;28;20036;-80
2022/01/17 06:40:29;;;;;;;2.95;1.33;;;4.50;93.50;;;;;;5073321;28;20098;-80
2022/01/17 06:42:55;;;;;;;3.53;1.38;;;4.50;93.60;;;;;;5053761;28;20075;-80
2022/01/17 06:45:21;;;;;;;3.03;1.25;;;4.50;93.60;;;;;;5054801;28;20048;-80
2022/01/17 06:47:47;;;;;;;4.05;1.80;;;4.50;93.60;;;;;;5038217;28;20448;-80
2022/01/17 06:50:13;;;;;;;3.58;1.60;;;4.40;93.60;;;;;;5054912;28;20136;-80
2022/01/17 06:52:39;;;;;;;2.72;1.40;;;4.60;93.60;;;;;;5038901;28;20044;-80
2022/01/17 06:55:06;;;;;;;3.97;1.90;;;4.50;93.60;;;;;;5065911;28;20566;-80
2022/01/17 06:57:32;;;;;;;3.47;1.70;;;4.50;93.60;;;;;;5071341;28;20036;-80
2022/01/17 06:59:58;;;;;;;3.33;1.58;;;4.50;93.60;;;;;;5071366;28;20106;-80
2022/01/17 07:02:24;;;;;;;2.72;1.50;;;4.50;93.60;;;;;;5054535;28;20111;-80
2022/01/17 07:04:50;;;;;;;4.28;1.88;;;4.50;93.60;;;;;;5071171;28;20029;-81
2022/01/17 07:07:16;;;;;;;3.55;1.88;;;4.50;93.70;;;;;;5054781;28;20051;-80
2022/01/17 07:09:42;;;;;;;4.57;2.13;;;4.60;93.70;;;;;;5052491;28;20491;-80
2022/01/17 07:12:08;;;;;;;3.97;2.00;;;4.60;93.60;;;;;;5034725;28;20055;-80
2022/01/17 07:14:41;;;;;;;3.67;1.85;;;4.60;93.60;;;;;;5054430;28;20028;-80
2022/01/17 07:17:09;;;;;;;5.80;2.22;;;4.70;93.60;;;;;;5055063;28;20037;-80
2022/01/17 07:19:35;;;;;;;3.95;2.22;;;4.70;93.60;;;;;;5068789;28;20059;-79
2022/01/17 07:22:00;;;;;;;4.97;2.45;;;4.70;93.60;;;;;;5071276;28;20571;-80
2022/01/17 07:24:26;;;;;;;4.35;2.58;;;4.70;93.50;;;;;;5070793;28;20072;-80
2022/01/17 07:26:52;;;;;;;5.85;2.15;;;4.80;93.50;;;;;;5070878;28;20036;-80
2022/01/17 07:29:18;;;;;;;5.43;2.88;;;4.80;93.50;;;;;;5054322;28;20032;-80
2022/01/17 07:31:43;;;;;;;5.55;2.92;;;4.80;93.50;;;;;;5054624;28;20031;-80
2022/01/17 07:34:09;;;;;;;6.13;3.08;;;4.90;93.50;;;;;;5068704;28;20136;-80
2022/01/17 07:36:35;;;;;;;6.05;2.90;;;4.90;93.50;;;;;;5037226;28;20083;-79
2022/01/17 07:39:01;;;;;;;6.78;2.45;;;4.90;93.40;;;;;;5071398;28;20087;-81
2022/01/17 07:41:28;;;;;;;6.15;2.80;;;4.90;93.40;;;;;;5052068;28;20106;-78
2022/01/17 07:44:36;;;;;;;5.85;2.72;;;5.00;93.40;;;;;;5072075;28;20040;-86
2022/01/17 07:55:02;;;;;;;5.20;2.53;;;5.10;93.40;;;;;;4998168;28;20090;-85
2022/01/17 08:05:46;;;;;;;;;;;5.30;93.40;;;;;;4905889;29;20146;-85
2022/01/17 08:08:17;;;;;;;4.40;1.88;;;5.30;93.30;;;;;;4893995;29;19962;-86
2022/01/17 08:10:52;;;;;;;5.05;2.33;;;5.30;93.30;;;;;;4856019;29;20034;-85
2022/01/17 08:13:20;;;;;;;5.28;2.20;;;5.20;93.30;;;;;;4856987;29;20109;-84
2022/01/17 08:18:33;;;;;;;6.47;2.50;;;5.30;93.40;;;;;;4821516;29;20050;-84
2022/01/17 08:21:16;;;;;;;6.35;2.92;;;5.30;93.40;;;;;;4821634;29;20048;-84
2022/01/17 08:27:35;;;;;;;5.53;2.67;;;5.40;93.40;;;;;;4784197;29;20287;-82
2022/01/17 08:30:12;;;;;;;9.65;3.60;;;5.30;93.40;;;;;;4770092;29;20508;-83
2022/01/17 08:32:40;;;;;;;6.68;3.38;;;5.40;93.40;;;;;;4786370;29;20126;-82
2022/01/17 08:35:06;;;;;;;6.57;3.30;;;5.50;93.40;;;;;;4782729;29;20054;-80
2022/01/17 08:37:35;;;;;;;9.18;3.58;;;5.50;93.40;;;;;;4803685;29;20050;-80
2022/01/17 08:40:08;;;;;;;7.43;3.17;;;5.60;93.40;;;;;;4758850;29;20579;-76
2022/01/17 08:42:36;;;;;;;5.28;2.88;;;5.50;93.40;;;;;;4831372;29;20499;-79
2022/01/17 08:45:06;;;;;;;6.28;2.67;;;5.60;93.50;;;;;;4863062;29;20032;-78
2022/01/17 08:47:32;;;;;;;7.70;3.00;;;5.70;93.50;;;;;;4879695;29;20068;-80
2022/01/17 08:50:56;;;;;;;5.63;2.85;;;5.60;93.50;;;;;;4914294;29;20055;-80
2022/01/17 08:53:24;;;;;;;7.13;3.25;;;5.80;93.50;;;;;;4863486;29;20081;-78
2022/01/17 08:59:02;;;;;;;6.85;2.97;;;5.80;93.40;;;;;;4981108;28;20057;-78
2022/01/17 09:01:34;;;;;;;8.15;3.35;;;5.80;93.30;;;;;;4957105;28;20402;-78
2022/01/17 09:12:06;;;;;;;5.03;2.67;;;5.90;93.30;;;;;;4853618;29;20068;-78
2022/01/17 09:17:44;;;;;;;5.30;2.42;;;5.90;93.30;;;;;;4663777;30;20133;-77
2022/01/17 09:20:11;;;;;;;4.53;2.50;;;6.00;93.30;;;;;;4661620;30;20055;-77
2022/01/17 09:22:37;;;;;;;5.47;2.70;;;6.00;93.30;;;;;;4661381;30;20057;-77
2022/01/17 09:25:06;;;;;;;4.35;1.90;;;6.00;93.30;;;;;;4661729;30;20038;-77
2022/01/17 09:27:33;;;;;;;4.63;2.10;;;6.00;93.40;;;;;;4676891;30;20046;-77
2022/01/17 09:29:59;;;;;;;5.22;2.08;;;6.00;93.40;;;;;;4685487;30;20053;-77
2022/01/17 09:32:25;;;;;;;5.05;2.30;;;6.10;93.40;;;;;;4709677;30;20187;-79
2022/01/17 09:34:50;;;;;;;3.97;2.13;;;6.00;93.40;;;;;;4681790;30;20045;-77
2022/01/17 09:37:16;;;;;;;3.40;1.77;;;6.00;93.40;;;;;;4684502;30;20034;-76
2022/01/17 09:39:42;;;;;;;5.50;2.25;;;6.10;93.40;;;;;;4698442;30;20166;-76
2022/01/17 09:42:10;;;;;;;6.70;2.92;;;6.10;93.40;;;;;;4692972;30;20045;-77
2022/01/17 09:44:36;;;;;;;5.30;2.33;;;6.20;93.40;;;;;;4750422;29;20126;-76
2022/01/17 09:47:12;;;;;;;4.32;2.20;;;6.20;93.40;;;;;;4890729;28;20040;-77
2022/01/17 09:49:48;;;;;;;5.05;2.03;;;6.20;93.40;;;;;;5059413;28;20036;-77
2022/01/17 09:52:34;;;;;;;3.00;1.80;;;6.30;93.40;;;;;;5060120;28;20092;-78
2022/01/17 09:58:10;;;;;;;4.57;1.90;;;6.30;93.40;;;;;;5065189;28;20080;-82
2022/01/17 10:00:48;;;;;;;5.43;2.20;;;6.40;93.40;;;;;;5076490;28;20048;-82
2022/01/17 10:03:18;;;;;;;3.92;1.88;;;6.50;93.40;;;;;;5035981;28;20041;-81
2022/01/17 10:05:44;;;;;;;5.10;1.90;;;6.60;93.40;;;;;;5018446;28;20044;-81
2022/01/17 10:08:15;;;;;;;4.57;2.22;;;6.50;93.40;;;;;;5036151;28;20033;-80
2022/01/17 10:10:47;;;;;;;3.53;1.80;;;6.60;93.40;;;;;;5018676;28;20064;-81
2022/01/17 10:13:20;;;;;;;3.15;1.45;;;6.40;93.30;;;;;;5035108;28;20025;-76
2022/01/17 10:16:01;;;;;;;3.55;1.58;;;6.50;93.30;;;;;;5035260;28;20106;-80
2022/01/17 10:18:31;;;;;;;4.25;1.40;;;6.50;93.30;;;;;;5051486;28;20052;-78
2022/01/17 10:21:02;;;;;;;3.63;1.60;;;6.60;93.40;;;;;;5034859;28;20037;-78
2022/01/17 10:23:44;;;;;;;5.15;1.38;;;6.60;93.30;;;;;;5035277;28;20041;-78
2022/01/17 10:26:26;;;;;;;4.00;1.70;;;6.90;93.40;;;;;;5019842;28;20511;-78
2022/01/17 10:29:15;;;;;;;5.35;1.90;;;6.70;93.30;;;;;;5059035;28;20543;-79
2022/01/17 10:37:25;;;;;;;3.95;1.35;;;6.80;93.30;;;;;;5078353;28;20051;-78
2022/01/17 10:40:04;;;;;;;3.50;1.40;;;6.90;93.30;;;;;;5092927;28;20080;-79
2022/01/17 10:42:34;;;;;;;4.05;1.50;;;6.80;93.30;;;;;;5075112;28;20044;-78
2022/01/17 10:45:07;;;;;;;3.17;1.05;;;6.80;93.30;;;;;;5058790;28;20090;-78
2022/01/17 10:47:39;;;;;;;2.45;1.10;;;6.90;93.30;;;;;;5073575;28;20093;-79
2022/01/17 10:50:20;;;;;;;3.65;1.15;;;7.00;93.30;;;;;;5042166;28;20040;-79
2022/01/17 10:52:49;;;;;;;3.45;1.38;;;6.90;93.30;;;;;;5076088;28;20044;-81
2022/01/17 10:55:20;;;;;;;2.90;1.20;;;7.00;93.30;;;;;;5058533;28;20085;-81
2022/01/17 10:58:02;;;;;;;4.18;1.40;;;7.00;93.30;;;;;;5041729;28;20036;-82
2022/01/17 11:04:00;;;;;;;1.85;1.10;;;7.10;93.30;;;;;;4933311;29;20036;-78
2022/01/17 11:06:26;;;;;;;2.38;1.05;;;7.10;93.20;;;;;;4936794;29;20115;-79
2022/01/17 11:08:52;;;;;;;3.25;1.20;;;7.20;93.20;;;;;;4917644;29;20535;-77
2022/01/17 11:14:49;;;;;;;6.50;1.30;;;7.10;93.20;;;;;;4906988;29;20397;-81
2022/01/17 11:17:37;;;;;;;2.63;0.90;;;7.30;93.20;;;;;;4858067;29;20045;-77
2022/01/17 11:20:27;;;;;;;3.13;1.20;;;7.30;93.20;;;;;;4820674;29;20054;-77
2022/01/17 11:22:57;;;;;;;6.72;1.50;;;7.40;93.20;;;;;;4875983;29;20040;-78
2022/01/17 11:25:28;;;;;;;3.40;1.15;;;7.30;93.20;;;;;;4876491;29;20080;-76
2022/01/17 11:27:54;;;;;;;4.63;1.35;;;7.30;93.20;;;;;;4876408;29;20032;-76
2022/01/17 11:30:21;;;;;;;3.47;1.17;;;7.50;93.20;;;;;;4928051;29;20040;-76
2022/01/17 11:32:50;;;;;;;3.70;1.30;;;7.40;93.20;;;;;;4914075;29;20488;-79
2022/01/17 11:35:19;;;;;;;2.35;1.10;;;7.40;93.20;;;;;;4959364;28;20038;-81
2022/01/17 11:37:48;;;;;;;3.45;1.30;;;7.40;93.20;;;;;;4955668;28;20023;-78
2022/01/17 11:40:15;;;;;;;3.72;1.02;;;7.50;93.20;;;;;;4971412;28;20137;-77
2022/01/17 11:42:45;;;;;;;4.88;1.35;;;7.50;93.20;;;;;;4971023;28;20384;-79
2022/01/17 11:45:32;;;;;;;2.83;1.23;;;7.50;93.20;;;;;;4981573;28;20030;-78
2022/01/17 11:48:06;;;;;;;4.13;0.90;;;7.60;93.20;;;;;;5010599;28;20039;-78
2022/01/17 11:50:41;;;;;;;4.43;1.00;;;7.50;93.20;;;;;;5047998;28;20128;-77
2022/01/17 11:53:37;;;;;;;3.45;0.80;;;7.50;93.20;;;;;;5064528;28;21234;-76
2022/01/17 11:56:03;;;;;;;4.32;1.00;;;7.60;93.20;;;;;;5049404;28;20096;-78
2022/01/17 11:58:37;;;;;;;1.52;0.60;;;7.70;93.20;;;;;;5097136;28;20032;-78
2022/01/17 12:01:20;;;;;;;2.58;0.90;;;7.60;93.20;;;;;;5113477;28;20112;-79
2022/01/17 12:03:53;;;;;;;2.25;0.82;;;7.80;93.20;;;;;;5081640;28;20144;-78
2022/01/17 12:06:22;;;;;;;2.60;0.80;;;7.80;93.20;;;;;;5055382;28;20041;-79
2022/01/17 12:08:51;;;;;;;2.92;0.82;;;7.80;93.10;;;;;;5061917;28;20028;-79
2022/01/17 12:11:31;;;;;;;5.03;0.77;;;7.90;93.10;;;;;;5096593;28;20028;-79
2022/01/17 12:14:20;;;;;;;3.08;0.98;;;8.00;93.10;;;;;;5060894;28;20036;-79
2022/01/17 12:16:46;;;;;;;2.53;0.80;;;8.00;93.40;;;;;;5090128;28;20043;-77
2022/01/17 12:19:14;;;;;;;2.67;0.80;;;8.10;93.10;;;;;;5058753;28;20045;-80
2022/01/17 12:21:47;;;;;;;2.47;0.80;;;8.10;93.00;;;;;;5067694;28;20052;-80
2022/01/17 12:24:26;;;;;;;3.88;1.00;;;8.20;93.00;;;;;;5059355;28;20483;-77
2022/01/17 12:27:13;;;;;;;2.00;0.73;;;8.30;93.00;;;;;;5073623;28;20066;-77
2022/01/17 12:29:44;;;;;;;2.10;0.65;;;8.30;92.90;;;;;;5099330;28;20050;-77
2022/01/17 12:32:46;;;;;;;3.70;0.90;;;8.40;92.90;;;;;;5079119;28;20036;-78
2022/01/17 12:35:17;;;;;;;2.75;0.73;;;8.40;92.90;;;;;;5083134;28;20045;-76
2022/01/17 12:37:50;;;;;;;2.67;1.00;;;8.50;92.90;;;;;;5079199;28;20130;-77
2022/01/17 12:40:32;;;;;;;4.65;1.00;;;8.60;92.80;;;;;;5093934;28;20051;-79
2022/01/17 12:43:02;;;;;;;;;;;8.60;92.80;;;;;;5073910;28;20040;-79
2022/01/17 12:45:37;;;;;;;3.45;0.90;;;8.60;92.70;;;;;;5092165;28;19895;-81
2022/01/17 12:48:07;;;;;;;4.55;0.70;;;8.60;92.70;;;;;;5078077;28;20039;-79
2022/01/17 12:50:36;;;;;;;3.22;0.80;;;8.80;92.70;;;;;;5095070;28;20056;-80
2022/01/17 12:53:05;;;;;;;4.65;0.77;;;8.70;92.60;;;;;;5058578;28;20044;-79
2022/01/17 12:55:35;;;;;;;4.25;0.88;;;8.80;92.60;;;;;;5101410;28;20043;-80
2022/01/17 12:58:08;;;;;;;2.20;0.80;;;8.90;92.60;;;;;;5057776;28;20036;-80
2022/01/17 13:00:33;;;;;;;2.40;0.70;;;8.90;92.50;;;;;;5094083;28;20039;-79
2022/01/17 13:02:59;;;;;;;6.07;1.02;;;8.90;92.50;;;;;;5092162;28;20493;-78
2022/01/17 13:05:31;;;;;;;2.28;0.60;;;8.90;92.50;;;;;;5091816;28;20396;-78
2022/01/17 13:08:02;;;;;;;2.25;0.88;;;8.90;92.50;;;;;;5056523;28;20040;-80
2022/01/17 13:10:29;;;;;;;3.70;0.82;;;8.90;92.50;;;;;;5074550;28;20036;-77
2022/01/17 13:12:57;;;;;;;1.88;0.70;;;9.00;92.50;;;;;;5076749;28;20040;-76
2022/01/17 13:15:23;;;;;;;4.28;1.25;;;9.00;92.50;;;;;;5060338;28;20082;-75
2022/01/17 13:17:51;;;;;;;3.20;0.88;;;9.00;92.50;;;;;;5059944;28;20032;-75
2022/01/17 13:20:18;;;;;;;4.78;1.30;;;9.00;92.40;;;;;;5096365;28;20044;-74
2022/01/17 13:25:24;;;;;;;4.45;0.98;;;9.00;92.40;;;;;;5093755;28;20040;-75
2022/01/17 13:27:54;;;;;;;2.97;0.77;;;9.00;92.40;;;;;;5076734;28;20028;-77
2022/01/17 13:30:20;;;;;;;2.75;0.82;;;9.00;92.40;;;;;;5094501;28;20081;-77
2022/01/17 13:32:47;;;;;;;6.07;0.82;;;9.10;92.40;;;;;;5059265;28;20119;-77
2022/01/17 13:35:21;;;;;;;4.80;0.93;;;9.00;92.40;;;;;;5059446;28;20135;-77
2022/01/17 13:37:50;;;;;;;2.97;0.80;;;9.00;92.40;;;;;;5094087;28;20122;-77
2022/01/17 13:40:22;;;;;;;3.78;1.00;;;9.10;92.40;;;;;;5075842;28;20059;-78
2022/01/17 13:42:52;;;;;;;3.83;1.00;;;9.00;92.30;;;;;;5059688;28;20128;-78
2022/01/17 13:45:34;;;;;;;4.97;0.93;;;9.10;92.40;;;;;;5059717;28;20559;-78
2022/01/17 13:48:05;;;;;;;5.32;1.00;;;9.00;92.30;;;;;;5093718;28;20113;-79
2022/01/17 13:50:32;;;;;;;3.85;0.80;;;9.00;92.30;;;;;;5093365;28;20063;-78
2022/01/17 13:52:58;;;;;;;2.58;1.00;;;9.10;92.30;;;;;;5075802;28;20036;-77
2022/01/17 13:55:30;;;;;;;3.72;0.80;;;9.10;92.30;;;;;;5075507;28;20102;-76
2022/01/17 13:58:01;;;;;;;4.80;0.90;;;9.20;92.60;;;;;;5074973;28;20064;-81
2022/01/17 14:01:03;;;;;;;4.13;1.08;;;9.00;92.30;;;;;;5058695;28;20086;-81
2022/01/17 14:07:23;;;;;;;5.60;1.02;;;9.10;92.20;;;;;;4992150;28;20046;-81
2022/01/17 14:09:50;;;;;;;8.68;1.50;;;9.10;92.20;;;;;;4993739;28;20519;-80
2022/01/17 14:12:15;;;;;;;4.75;1.20;;;9.00;92.20;;;;;;5011311;28;20042;-79
2022/01/17 14:14:52;;;;;;;3.45;1.30;;;9.10;92.20;;;;;;4995196;28;20590;-76
2022/01/17 14:17:23;;;;;;;4.78;1.10;;;9.20;92.20;;;;;;5011400;28;20485;-77
2022/01/17 14:19:49;;;;;;;4.38;1.17;;;9.00;92.20;;;;;;5011556;28;20076;-77